FRA weather

Frankfurt am Main Airport
Frankfurt am Main, Hesse, Germany

Public forecast

Using degrees Celsius for public forecast. Weather courtesy of forecast.io.

METAR (pilot weather report)

Retrieved 2019/03/24 22:20 UTC (38 minutes ago):

EDDF 242220Z 27006KT CAVOK 05/M02 Q1023 NOSIG

TAF (pilot weather forecast)

Retrieved 2019/03/24 18:27 UTC (5 hours ago):

TAF TAF EDDF 241700Z 2418/2524 32008KT 9999 FEW040 BECMG 2501/2503 26007KT BECMG 2506/2508 28015G25KT PROB40 TEMPO 2508/2518 31020G35KT 3500 SHRAGS SCT020 BKN030CB BECMG 2518/2520 29009KT